Hamilton, Ohio
Current Conditions -  °F | °C
As of 8:53 AM on Saturday 25 Oct 2014 (Local Time) from KHAO Reporting Station
Haze Haze  
Wind Chill: 51°   Ceiling: 4200
Heat Index: 51°   Visibility: 5mi
Dew Point: 48°   Wind: 0mph
Humidity: 89%   Direction: NA
Pressure: 30"   Gusts: NA
Location:  39.4°N, 84.56°W
Report Text: KHAO 251253Z AUTO 00000KT 5SM BR OVC042 11/09 A3000 RMK AO2 SLP161 T01060089 $
Loading
Personal Weather Stations






























Interactive Weather Map
Tropical Storm Tracking
New forecast layout! Learn more

10-Day Weather Forecast

Advertisements
Track Severe Weather on mobile